Time;durP1;ratioP1;P1;durP2;ratioP2;P2;SDS_P1;SDS_P2;PMS_P1;PMS_P2;Temp;Humidity;BMP_temperature;BMP_pressure;BME280_temperature;BME280_humidity;BME280_pressure;Samples;Min_cycle;Max_cycle;Signal;HPM_P1;HPM_P2
2022/12/11 00:01:24;;;;;;;1999.90;999.90;;;-0.60;99.90;;;;;;4937275;29;20040;-78
2022/12/11 00:03:50;;;;;;;1999.90;999.90;;;-0.50;99.90;;;;;;4935999;29;20040;-77
2022/12/11 00:06:18;;;;;;;1999.90;999.90;;;-0.50;99.90;;;;;;4958192;23;1063044;-76
2022/12/11 00:08:44;;;;;;;1999.90;999.90;;;-0.50;99.90;;;;;;4994794;28;20535;-76
2022/12/11 00:11:13;;;;;;;1999.90;999.90;;;-0.50;99.90;;;;;;4996163;28;20117;-76
2022/12/11 00:13:39;;;;;;;1999.90;999.90;;;-0.50;99.90;;;;;;4996087;28;20043;-76
2022/12/11 00:16:04;;;;;;;1999.90;999.90;;;-0.50;99.90;;;;;;4996451;28;20038;-76
2022/12/11 00:18:30;;;;;;;1999.90;999.90;;;-0.40;99.90;;;;;;4996453;28;20035;-76
2022/12/11 00:21:00;;;;;;;1999.90;999.90;;;-0.40;99.90;;;;;;4996056;28;20035;-76
2022/12/11 00:23:26;;;;;;;1999.90;999.90;;;-0.40;99.90;;;;;;4996150;28;20035;-76
2022/12/11 00:25:52;;;;;;;1999.90;999.90;;;-0.40;99.90;;;;;;4996250;28;20469;-76
2022/12/11 00:28:20;;;;;;;1999.90;999.90;;;-0.40;99.90;;;;;;4996286;28;20080;-76
2022/12/11 05:02:36;;;;;;;1999.90;999.90;;;-0.10;99.90;;;;;;4972904;28;20051;-75
2022/12/11 05:05:04;;;;;;;1999.90;999.90;;;-0.10;99.90;;;;;;4974723;28;20043;-75
2022/12/11 05:07:30;;;;;;;1999.90;999.90;;;-0.10;99.90;;;;;;4974945;28;20496;-76
2022/12/11 05:09:56;;;;;;;1999.90;999.90;;;-0.10;99.90;;;;;;4976323;28;20081;-75
2022/12/11 05:12:21;;;;;;;1999.90;999.90;;;-0.10;99.90;;;;;;4976170;28;20058;-75
2022/12/11 05:14:50;;;;;;;1999.90;999.90;;;-0.10;99.90;;;;;;5008286;22;20050;-77
2022/12/11 05:17:15;;;;;;;1999.90;999.90;;;-0.10;99.90;;;;;;4994420;28;20522;-78
2022/12/11 05:19:41;;;;;;;1999.90;999.90;;;-0.10;99.90;;;;;;4995462;28;20041;-78
2022/12/11 05:22:06;;;;;;;1999.90;999.90;;;-0.10;99.90;;;;;;4994968;28;20045;-78
2022/12/11 05:24:32;;;;;;;1999.90;999.90;;;0.00;99.90;;;;;;4995460;28;20109;-78
2022/12/11 05:26:57;;;;;;;1999.90;999.90;;;0.00;99.90;;;;;;4996782;28;20062;-77
2022/12/11 05:29:23;;;;;;;1999.90;999.90;;;-0.10;99.90;;;;;;4997515;28;20114;-77
2022/12/11 05:31:48;;;;;;;1999.90;999.90;;;-0.10;99.90;;;;;;4995874;28;20042;-77
2022/12/11 05:34:14;;;;;;;1999.90;999.90;;;-0.10;99.90;;;;;;4995278;28;20592;-77
2022/12/11 05:36:40;;;;;;;1999.90;999.90;;;-0.10;99.90;;;;;;4993760;28;20547;-77
2022/12/11 05:39:05;;;;;;;1999.90;999.90;;;-0.20;99.90;;;;;;4993766;28;20043;-77
2022/12/11 05:41:31;;;;;;;1999.90;999.90;;;-0.20;99.90;;;;;;4993386;28;20037;-78
2022/12/11 05:43:57;;;;;;;1999.90;999.90;;;-0.20;99.90;;;;;;4993615;28;20067;-77
2022/12/11 05:46:25;;;;;;;1999.90;999.90;;;-0.20;99.90;;;;;;4995057;28;20038;-77
2022/12/11 05:48:56;;;;;;;1999.90;999.90;;;-0.30;99.90;;;;;;4995019;28;20042;-77
2022/12/11 05:51:22;;;;;;;1999.90;999.90;;;-0.30;99.90;;;;;;4993339;28;20027;-77
2022/12/11 05:53:50;;;;;;;1999.90;999.90;;;-0.30;99.90;;;;;;4994758;28;20093;-77
2022/12/11 05:56:22;;;;;;;1999.90;999.90;;;-0.30;99.90;;;;;;4994936;28;20034;-77
2022/12/11 05:58:48;;;;;;;1999.90;999.90;;;-0.40;99.90;;;;;;4993521;28;20094;-77
2022/12/11 06:01:42;;;;;;;1999.90;999.90;;;-0.40;99.90;;;;;;4993330;28;20038;-77
2022/12/11 06:04:10;;;;;;;1999.90;999.90;;;-0.40;99.90;;;;;;4994019;28;20046;-78
2022/12/11 06:06:36;;;;;;;1999.90;999.90;;;-0.40;99.90;;;;;;4995013;28;20038;-78
2022/12/11 06:09:03;;;;;;;1999.90;999.90;;;-0.50;99.90;;;;;;4995067;28;20038;-77
2022/12/11 06:11:31;;;;;;;1999.90;999.90;;;-0.50;99.90;;;;;;4993043;28;20484;-78
2022/12/11 06:13:57;;;;;;;1999.90;999.90;;;-0.50;99.90;;;;;;4994400;28;20077;-78
2022/12/11 06:16:23;;;;;;;1999.90;999.90;;;-0.50;99.90;;;;;;4994837;28;20031;-78
2022/12/11 06:18:49;;;;;;;1999.90;999.90;;;-0.50;99.90;;;;;;4994689;28;20093;-77
2022/12/11 06:21:16;;;;;;;1999.90;999.90;;;-0.50;99.90;;;;;;4994536;28;20543;-78
2022/12/11 06:23:42;;;;;;;1999.90;999.90;;;-0.60;99.90;;;;;;4992941;28;20039;-77
2022/12/11 06:26:09;;;;;;;1999.90;999.90;;;-0.60;99.90;;;;;;4993335;28;20031;-77
2022/12/11 06:28:34;;;;;;;1999.90;999.90;;;-0.60;99.90;;;;;;4994476;28;20764;-77
2022/12/11 06:31:00;;;;;;;1999.90;999.90;;;-0.60;99.90;;;;;;4992777;28;20034;-77
2022/12/11 06:33:26;;;;;;;1999.90;999.90;;;-0.50;99.90;;;;;;4994543;28;20049;-77
2022/12/11 06:35:52;;;;;;;1999.90;999.90;;;-0.50;99.90;;;;;;4992699;28;20045;-77
2022/12/11 06:38:17;;;;;;;1999.90;999.90;;;-0.60;99.90;;;;;;4994531;28;20046;-78
2022/12/11 06:40:43;;;;;;;1999.90;999.90;;;-0.60;99.90;;;;;;4992693;28;20035;-77
2022/12/11 06:43:09;;;;;;;1999.90;999.90;;;-0.60;99.90;;;;;;4992968;28;20085;-77
2022/12/11 06:45:36;;;;;;;1999.90;999.90;;;-0.70;99.90;;;;;;4995332;28;20027;-77
2022/12/11 06:48:02;;;;;;;1999.90;999.90;;;-0.70;99.90;;;;;;4998035;28;20046;-77
2022/12/11 06:50:28;;;;;;;1999.90;999.90;;;-0.70;99.90;;;;;;4996198;28;20035;-78
2022/12/11 06:52:57;;;;;;;1999.90;999.90;;;-0.70;99.90;;;;;;4997879;28;20089;-77
2022/12/11 06:55:23;;;;;;;1999.90;999.90;;;-0.70;99.90;;;;;;4997323;28;20464;-77
2022/12/11 06:57:48;;;;;;;1999.90;999.90;;;-0.80;99.90;;;;;;4997513;28;20046;-77
2022/12/11 07:00:14;;;;;;;1999.90;999.90;;;-0.80;99.90;;;;;;4997345;28;20046;-77
2022/12/11 07:02:40;;;;;;;1999.90;999.90;;;-0.90;99.90;;;;;;4997728;28;20027;-77
2022/12/11 07:05:06;;;;;;;1999.90;999.90;;;-0.90;99.90;;;;;;4995820;28;20035;-77
2022/12/11 07:07:32;;;;;;;1999.90;999.90;;;-0.90;99.90;;;;;;4996029;28;20045;-78
2022/12/11 07:09:57;;;;;;;1999.90;999.90;;;-1.00;99.90;;;;;;4997279;28;20066;-77
2022/12/11 07:12:23;;;;;;;1999.90;999.90;;;-0.90;99.90;;;;;;4996018;28;20037;-77
2022/12/11 07:14:49;;;;;;;1999.90;999.90;;;-0.90;99.90;;;;;;4995480;28;20042;-77
2022/12/11 07:17:14;;;;;;;1999.90;999.90;;;-0.80;99.90;;;;;;4997057;28;20031;-77
2022/12/11 07:19:40;;;;;;;1999.90;999.90;;;-0.80;99.90;;;;;;4997375;28;20092;-77
2022/12/11 07:22:05;;;;;;;1999.90;999.90;;;-0.80;99.90;;;;;;4997431;28;20170;-77
2022/12/11 07:24:31;;;;;;;1999.90;999.90;;;-0.80;99.90;;;;;;4996966;28;20110;-77
2022/12/11 07:26:57;;;;;;;1999.90;999.90;;;-0.70;99.90;;;;;;4997375;28;20516;-77
2022/12/11 07:29:22;;;;;;;1999.90;999.90;;;-0.60;99.90;;;;;;4996797;28;20030;-77
2022/12/11 07:31:49;;;;;;;1999.90;999.90;;;-0.60;99.90;;;;;;4996623;28;20162;-78
2022/12/11 07:34:14;;;;;;;1999.90;999.90;;;-0.60;99.90;;;;;;4995610;28;20038;-78
2022/12/11 07:36:40;;;;;;;1999.90;999.90;;;-0.60;99.90;;;;;;4996934;28;20035;-78
2022/12/11 07:39:07;;;;;;;1999.90;999.90;;;-0.60;99.90;;;;;;4996973;28;20035;-78
2022/12/11 07:41:33;;;;;;;1999.90;999.90;;;-0.60;99.90;;;;;;4996654;28;20027;-77
2022/12/11 07:44:00;;;;;;;1999.90;999.90;;;-0.50;99.90;;;;;;4995086;28;20042;-77
2022/12/11 07:46:28;;;;;;;1999.90;999.90;;;-0.60;99.90;;;;;;4995626;28;20035;-78
2022/12/11 07:48:53;;;;;;;1999.90;999.90;;;-0.60;99.90;;;;;;4996700;28;20034;-77
2022/12/11 07:51:25;;;;;;;1999.90;999.90;;;-0.50;99.90;;;;;;4996443;28;20400;-77
2022/12/11 07:53:52;;;;;;;1999.90;999.90;;;-0.60;99.90;;;;;;4996526;28;20035;-77
2022/12/11 07:56:18;;;;;;;1999.90;999.90;;;-0.60;99.90;;;;;;4996001;28;20031;-78
2022/12/11 07:58:44;;;;;;;1999.90;999.90;;;-0.60;99.90;;;;;;4995608;28;20039;-78
2022/12/11 08:01:18;;;;;;;1999.90;999.90;;;-0.60;99.90;;;;;;5006616;28;20027;-78
2022/12/11 08:03:45;;;;;;;1999.90;999.90;;;-0.60;99.90;;;;;;5014941;28;20031;-78
2022/12/11 08:06:11;;;;;;;1999.90;999.90;;;-0.60;99.90;;;;;;4998824;28;20559;-78
2022/12/11 08:08:38;;;;;;;1999.90;999.90;;;-0.50;99.90;;;;;;4998377;28;20066;-78
2022/12/11 08:11:05;;;;;;;1999.90;999.90;;;-0.50;99.90;;;;;;4997892;28;20114;-77
2022/12/11 08:13:32;;;;;;;1999.90;999.90;;;-0.40;99.90;;;;;;4998369;28;20039;-78
2022/12/11 08:15:57;;;;;;;1999.90;999.90;;;-0.30;99.90;;;;;;4999629;28;20867;-78
2022/12/11 08:18:23;;;;;;;1999.90;999.90;;;-0.20;99.90;;;;;;5019467;28;20049;-78
2022/12/11 08:20:48;;;;;;;1999.90;999.90;;;-0.20;99.90;;;;;;5019904;28;20033;-80
2022/12/11 08:23:14;;;;;;;1999.90;999.90;;;-0.10;99.90;;;;;;5021458;28;20523;-78
2022/12/11 08:25:39;;;;;;;1999.90;999.90;;;0.00;99.90;;;;;;5018405;28;20416;-79
2022/12/11 08:28:05;;;;;;;1999.90;999.90;;;0.00;99.90;;;;;;5016964;28;20057;-78
2022/12/11 08:30:31;;;;;;;1999.90;999.90;;;0.00;99.90;;;;;;5021378;28;20030;-78
2022/12/11 08:32:57;;;;;;;1999.90;999.90;;;0.10;99.90;;;;;;5017286;28;20042;-78
2022/12/11 08:35:22;;;;;;;1999.90;999.90;;;0.20;99.90;;;;;;5015377;28;20030;-78
2022/12/11 08:37:48;;;;;;;1999.90;999.90;;;0.20;99.90;;;;;;5016007;28;20381;-79
2022/12/11 08:40:14;;;;;;;1999.90;999.90;;;0.20;99.90;;;;;;5016162;28;20037;-79
2022/12/11 08:42:39;;;;;;;1999.90;999.90;;;0.20;99.90;;;;;;5019136;28;20034;-79
2022/12/11 08:45:05;;;;;;;1999.90;999.90;;;0.20;99.90;;;;;;5015462;28;20090;-79
2022/12/11 08:47:31;;;;;;;1999.90;999.90;;;0.10;99.90;;;;;;5013663;28;20034;-79
2022/12/11 08:49:56;;;;;;;1999.90;999.90;;;0.10;99.90;;;;;;5015963;28;20038;-79
2022/12/11 08:52:22;;;;;;;1999.90;999.90;;;0.10;99.90;;;;;;5015858;28;20105;-79
2022/12/11 08:54:48;;;;;;;1999.90;999.90;;;0.00;99.90;;;;;;5013941;28;20050;-79
2022/12/11 08:57:13;;;;;;;1999.90;999.90;;;-0.10;99.90;;;;;;5015411;28;20053;-79
2022/12/11 08:59:39;;;;;;;1999.90;999.90;;;-0.20;99.90;;;;;;5014353;28;20057;-79
2022/12/11 09:02:05;;;;;;;1999.90;999.90;;;-0.30;99.90;;;;;;5015665;28;20543;-79
2022/12/11 09:04:30;;;;;;;1999.90;999.90;;;-0.20;99.90;;;;;;5015420;28;20369;-79
2022/12/11 09:06:56;;;;;;;1999.90;999.90;;;-0.20;99.90;;;;;;5013136;28;20035;-78
2022/12/11 09:09:22;;;;;;;1999.90;999.90;;;-0.10;99.90;;;;;;5017563;28;20058;-79
2022/12/11 09:11:48;;;;;;;1999.90;999.90;;;-0.30;99.90;;;;;;5013926;28;20034;-78
2022/12/11 09:14:15;;;;;;;1999.90;999.90;;;-0.30;99.90;;;;;;5014174;28;20050;-79
2022/12/11 09:16:41;;;;;;;1999.90;999.90;;;-0.30;99.90;;;;;;5013870;28;20026;-78
2022/12/11 09:19:12;;;;;;;1999.90;999.90;;;-0.20;99.90;;;;;;5013767;28;20038;-79
2022/12/11 09:21:37;;;;;;;1999.90;999.90;;;-0.10;99.90;;;;;;5017922;28;20086;-79
2022/12/11 09:24:03;;;;;;;1999.90;999.90;;;-0.10;99.90;;;;;;5005424;28;20070;-78
2022/12/11 09:26:29;;;;;;;1999.90;999.90;;;0.10;99.90;;;;;;4990033;28;20027;-79
2022/12/11 09:28:55;;;;;;;1999.90;999.90;;;0.10;99.90;;;;;;4996127;28;20042;-78
2022/12/11 09:31:22;;;;;;;1999.90;999.90;;;0.10;99.90;;;;;;4992008;28;20070;-79
2022/12/11 09:33:48;;;;;;;1999.90;999.90;;;0.10;99.90;;;;;;4995257;28;20497;-78
2022/12/11 09:36:14;;;;;;;1999.90;999.90;;;0.20;99.90;;;;;;4985849;28;20031;-78
2022/12/11 09:38:42;;;;;;;1999.90;999.90;;;0.30;99.90;;;;;;4986407;28;20504;-78
2022/12/11 09:41:20;;;;;;;1999.90;999.90;;;0.20;99.90;;;;;;4989393;28;20110;-80
2022/12/11 09:44:00;;;;;;;1999.90;999.90;;;0.40;99.90;;;;;;4992202;28;20074;-79
2022/12/11 09:46:27;;;;;;;1999.90;999.90;;;0.30;99.90;;;;;;4995179;28;20033;-77
2022/12/11 09:48:53;;;;;;;1999.90;999.90;;;0.20;99.90;;;;;;4986874;28;20043;-77
2022/12/11 09:51:29;;;;;;;1999.90;999.90;;;0.20;99.90;;;;;;4992485;28;20035;-77
2022/12/11 09:53:58;;;;;;;1999.90;999.90;;;0.20;99.90;;;;;;4980657;28;20547;-77
2022/12/11 09:56:30;;;;;;;1999.90;999.90;;;0.20;99.90;;;;;;4980924;28;20035;-79
2022/12/11 09:59:40;;;;;;;1999.90;999.90;;;0.10;99.90;;;;;;4990658;28;20039;-77
2022/12/11 10:02:23;;;;;;;1999.90;999.90;;;0.20;99.90;;;;;;4974628;28;20034;-76
2022/12/11 10:04:59;;;;;;;1999.90;999.90;;;0.30;99.90;;;;;;4991036;28;20047;-76
2022/12/11 10:07:59;;;;;;;1999.90;999.90;;;0.40;99.90;;;;;;4989096;28;20034;-76
2022/12/11 10:10:51;;;;;;;1999.90;999.90;;;0.40;99.90;;;;;;4992897;28;20552;-75
2022/12/11 10:13:40;;;;;;;1999.90;999.90;;;0.30;99.90;;;;;;4981078;28;20506;-76
2022/12/11 10:16:33;;;;;;;1999.90;999.90;;;0.40;99.90;;;;;;4981683;28;20035;-77
2022/12/11 10:19:00;;;;;;;1999.90;999.90;;;0.60;99.90;;;;;;4993209;28;20034;-77
2022/12/11 10:21:28;;;;;;;1999.90;999.90;;;0.60;99.90;;;;;;4998077;28;20058;-76
2022/12/11 10:23:59;;;;;;;1999.90;999.90;;;0.80;99.90;;;;;;4990673;28;20050;-77
2022/12/11 10:26:28;;;;;;;1999.90;999.90;;;0.90;99.90;;;;;;4994230;28;20034;-77
2022/12/11 10:28:59;;;;;;;1999.90;999.90;;;1.00;99.90;;;;;;4983197;28;20109;-78
2022/12/11 10:31:57;;;;;;;1999.90;999.90;;;1.10;99.90;;;;;;4988348;28;20095;-79
2022/12/11 10:34:34;;;;;;;1999.90;999.90;;;1.20;99.90;;;;;;4985373;28;20077;-79
2022/12/11 10:37:01;;;;;;;1999.90;999.90;;;1.40;99.90;;;;;;4980454;28;20039;-78
2022/12/11 10:39:26;;;;;;;1999.90;999.90;;;1.40;99.90;;;;;;4992424;28;20075;-78
2022/12/11 10:41:54;;;;;;;1999.90;999.90;;;1.40;99.90;;;;;;4991665;28;20110;-78
2022/12/11 10:44:29;;;;;;;1999.90;999.90;;;1.40;99.90;;;;;;4982502;28;20094;-78
2022/12/11 10:47:14;;;;;;;1999.90;999.90;;;1.50;99.90;;;;;;4987816;28;20480;-80
2022/12/11 10:49:55;;;;;;;1999.90;999.90;;;1.40;99.90;;;;;;4996122;28;20836;-79
2022/12/11 10:52:47;;;;;;;1999.90;999.90;;;1.20;99.90;;;;;;4990305;28;20041;-80
2022/12/11 10:55:29;;;;;;;1999.90;999.90;;;1.10;99.90;;;;;;4975804;28;20551;-80
2022/12/11 10:58:04;;;;;;;1999.90;999.90;;;1.00;99.90;;;;;;4990432;28;20031;-80
2022/12/11 11:00:38;;;;;;;1999.90;999.90;;;0.80;99.90;;;;;;4999103;28;20042;-80
2022/12/11 11:03:17;;;;;;;1999.90;999.90;;;0.70;99.90;;;;;;4983248;28;20054;-80
2022/12/11 11:05:43;;;;;;;1999.90;999.90;;;0.70;99.90;;;;;;4988611;28;20042;-78
2022/12/11 11:08:21;;;;;;;1999.90;999.90;;;0.80;99.90;;;;;;5002063;28;20103;-81
2022/12/11 11:10:52;;;;;;;1999.90;999.90;;;0.90;99.90;;;;;;5019482;28;20043;-81
2022/12/11 11:13:24;;;;;;;1999.90;999.90;;;1.00;99.90;;;;;;4986735;28;20129;-80
2022/12/11 11:16:11;;;;;;;1999.90;999.90;;;0.90;99.90;;;;;;4988423;28;20095;-80
2022/12/11 11:18:39;;;;;;;1999.90;999.90;;;1.00;99.90;;;;;;4998551;28;20045;-79
2022/12/11 11:21:05;;;;;;;1999.90;999.90;;;0.90;99.90;;;;;;4985579;28;20034;-79
2022/12/11 11:23:33;;;;;;;1999.90;999.90;;;0.70;99.90;;;;;;4995975;28;20481;-79
2022/12/11 11:26:01;;;;;;;1999.90;999.90;;;0.60;99.90;;;;;;4993213;28;20062;-79
2022/12/11 11:28:28;;;;;;;1999.90;999.90;;;0.50;99.90;;;;;;4992353;28;20050;-81
2022/12/11 11:31:02;;;;;;;1999.90;999.90;;;0.50;99.90;;;;;;4983582;28;20035;-80
2022/12/11 11:33:28;;;;;;;1999.90;999.90;;;0.60;99.90;;;;;;4985537;28;20042;-79
2022/12/11 11:35:59;;;;;;;1999.90;999.90;;;0.60;99.90;;;;;;4983968;28;20586;-80
2022/12/11 11:38:30;;;;;;;1999.90;999.90;;;0.70;99.90;;;;;;4993779;28;20038;-80
2022/12/11 11:41:11;;;;;;;1999.90;999.90;;;0.80;99.90;;;;;;4988879;28;20035;-80
2022/12/11 11:43:49;;;;;;;1999.90;999.90;;;0.80;99.90;;;;;;4996915;28;20101;-80
2022/12/11 11:46:18;;;;;;;1999.90;999.90;;;0.90;99.90;;;;;;4990497;28;20087;-81
2022/12/11 11:49:00;;;;;;;1999.90;999.90;;;0.80;99.90;;;;;;4992177;28;20032;-80
2022/12/11 11:51:33;;;;;;;1999.90;999.90;;;0.90;99.90;;;;;;4997019;28;20031;-80
2022/12/11 11:54:02;;;;;;;1999.90;999.90;;;0.90;99.90;;;;;;4992172;28;20066;-80
2022/12/11 11:56:36;;;;;;;1999.90;999.90;;;0.70;99.90;;;;;;4990691;28;20038;-80
2022/12/11 11:59:15;;;;;;;1999.90;999.90;;;0.50;99.90;;;;;;4995169;28;20097;-81
2022/12/11 12:01:43;;;;;;;1999.90;999.90;;;0.50;99.90;;;;;;4990182;28;20090;-80
2022/12/11 12:04:10;;;;;;;1999.90;999.90;;;0.30;99.90;;;;;;4986367;28;20185;-80
2022/12/11 12:06:42;;;;;;;1999.90;999.90;;;0.30;99.90;;;;;;4988439;28;20046;-80
2022/12/11 12:09:22;;;;;;;1999.90;999.90;;;0.30;99.90;;;;;;4988423;28;20039;-80
2022/12/11 12:12:05;;;;;;;1999.90;999.90;;;0.40;99.90;;;;;;4982986;28;20095;-80
2022/12/11 12:14:41;;;;;;;1999.90;999.90;;;0.30;99.90;;;;;;4985372;28;20067;-80
2022/12/11 12:17:15;;;;;;;1999.90;999.90;;;0.30;99.90;;;;;;4989655;28;20081;-79
2022/12/11 12:20:09;;;;;;;1999.90;999.90;;;0.40;99.90;;;;;;4992579;28;20047;-80
2022/12/11 12:22:54;;;;;;;1999.90;999.90;;;0.40;99.90;;;;;;4978623;28;20086;-79
2022/12/11 12:25:22;;;;;;;1999.90;999.90;;;0.40;99.90;;;;;;4978285;28;20039;-78
2022/12/11 12:27:59;;;;;;;1999.90;999.90;;;0.40;99.90;;;;;;4984420;28;20039;-79
2022/12/11 12:30:29;;;;;;;1999.90;999.90;;;0.30;99.90;;;;;;4993426;28;20126;-78
2022/12/11 12:33:09;;;;;;;1999.90;999.90;;;0.40;99.90;;;;;;4989431;28;20038;-78
2022/12/11 12:35:37;;;;;;;1999.90;999.90;;;0.50;99.90;;;;;;4991344;28;20046;-78
2022/12/11 12:38:22;;;;;;;1999.90;999.90;;;0.60;99.90;;;;;;4993089;28;20528;-80
2022/12/11 12:41:21;;;;;;;1999.90;999.90;;;0.70;99.90;;;;;;4991594;28;20039;-80
2022/12/11 12:44:12;;;;;;;1999.90;999.90;;;0.70;99.90;;;;;;4988795;28;20019;-78
2022/12/11 12:47:04;;;;;;;1999.90;999.90;;;0.90;99.90;;;;;;4990516;28;20125;-83
2022/12/11 12:49:41;;;;;;;1999.90;999.90;;;0.80;99.90;;;;;;4991186;28;20062;-80
2022/12/11 12:52:32;;;;;;;1999.90;999.90;;;0.80;99.90;;;;;;4988952;28;20050;-80
2022/12/11 12:55:21;;;;;;;1999.90;999.90;;;0.70;99.90;;;;;;5005961;28;20043;-81
2022/12/11 12:57:52;;;;;;;1999.90;999.90;;;0.50;99.90;;;;;;4988573;28;20035;-83
2022/12/11 13:00:37;;;;;;;1999.90;999.90;;;0.50;99.90;;;;;;4989406;28;20915;-85
2022/12/11 13:03:19;;;;;;;1999.90;999.90;;;0.50;99.90;;;;;;5004478;28;20121;-80
2022/12/11 13:06:07;;;;;;;1999.90;999.90;;;0.60;99.90;;;;;;4997823;28;20483;-86
2022/12/11 13:08:41;;;;;;;1999.90;999.90;;;0.60;99.90;;;;;;5000003;28;20520;-79
2022/12/11 13:11:10;;;;;;;1999.90;999.90;;;0.50;99.90;;;;;;4995870;28;20070;-82
2022/12/11 13:13:42;;;;;;;1999.90;999.90;;;0.40;99.90;;;;;;4989944;28;20046;-82
2022/12/11 13:16:24;;;;;;;1999.90;999.90;;;0.40;99.90;;;;;;4990903;28;20042;-84
2022/12/11 13:18:54;;;;;;;1999.90;999.90;;;0.40;99.90;;;;;;4988915;28;20038;-81
2022/12/11 13:21:37;;;;;;;1999.90;999.90;;;0.50;99.90;;;;;;4989878;28;20230;-85
2022/12/11 13:24:12;;;;;;;1999.90;999.90;;;0.50;99.90;;;;;;4997624;28;20046;-81
2022/12/11 13:26:37;;;;;;;1999.90;999.90;;;0.50;99.90;;;;;;4988019;28;20117;-80
2022/12/11 13:29:03;;;;;;;1999.90;999.90;;;0.60;99.90;;;;;;4987323;28;20537;-82
2022/12/11 13:31:36;;;;;;;1999.90;999.90;;;0.60;99.90;;;;;;4985781;28;20042;-81
2022/12/11 13:34:32;;;;;;;1999.90;999.90;;;0.70;99.90;;;;;;4988148;28;20059;-82
2022/12/11 13:36:58;;;;;;;1999.90;999.90;;;0.70;99.90;;;;;;4990523;28;20034;-82
2022/12/11 13:39:26;;;;;;;1999.90;999.90;;;0.80;99.90;;;;;;4993677;28;20121;-83
2022/12/11 13:41:58;;;;;;;1999.90;999.90;;;0.80;99.90;;;;;;4995856;28;20057;-84
2022/12/11 13:44:27;;;;;;;1999.90;999.90;;;0.70;99.90;;;;;;4996050;28;20133;-81
2022/12/11 13:46:56;;;;;;;1999.90;999.90;;;0.70;99.90;;;;;;4995293;28;20031;-84
2022/12/11 13:49:26;;;;;;;1999.90;999.90;;;0.60;99.90;;;;;;4993525;28;20046;-86
2022/12/11 13:51:54;;;;;;;1999.90;999.90;;;0.60;99.90;;;;;;4996344;28;20957;-84
2022/12/11 13:54:20;;;;;;;1999.90;999.90;;;0.60;99.90;;;;;;4985994;28;20047;-85
2022/12/11 13:56:56;;;;;;;1999.90;999.90;;;0.50;99.90;;;;;;4993249;28;20031;-87
2022/12/11 13:59:28;;;;;;;1999.90;999.90;;;0.50;99.90;;;;;;4984459;28;20484;-82
2022/12/11 14:01:58;;;;;;;1999.90;999.90;;;0.50;99.90;;;;;;5001340;28;20035;-80
2022/12/11 14:04:26;;;;;;;1999.90;999.90;;;0.60;99.90;;;;;;4988800;28;20179;-80
2022/12/11 14:06:53;;;;;;;1999.90;999.90;;;0.60;99.90;;;;;;4996937;28;20935;-83
2022/12/11 14:09:22;;;;;;;1999.90;999.90;;;0.60;99.90;;;;;;4999895;28;20042;-82
2022/12/11 14:11:48;;;;;;;1999.90;999.90;;;0.50;99.90;;;;;;4978809;28;20825;-79
2022/12/11 14:14:21;;;;;;;1999.90;999.90;;;0.50;99.90;;;;;;4979522;28;20058;-80
2022/12/11 14:16:50;;;;;;;1999.90;999.90;;;0.50;99.90;;;;;;4997845;28;20053;-79
2022/12/11 14:19:20;;;;;;;1999.90;999.90;;;0.40;99.90;;;;;;5019856;28;20050;-79
2022/12/11 14:22:03;;;;;;;1999.90;999.90;;;0.40;99.90;;;;;;5016994;28;20043;-79
2022/12/11 14:24:30;;;;;;;1999.90;999.90;;;0.40;99.90;;;;;;5002973;28;20050;-79
2022/12/11 14:26:57;;;;;;;1999.90;999.90;;;0.40;99.90;;;;;;5001328;28;20046;-79
2022/12/11 14:29:32;;;;;;;1999.90;999.90;;;0.40;99.90;;;;;;5001592;28;20081;-79
2022/12/11 14:32:02;;;;;;;1999.90;999.90;;;0.50;99.90;;;;;;5002776;28;21052;-79
2022/12/11 14:34:42;;;;;;;1999.90;999.90;;;0.50;99.90;;;;;;5002275;28;20051;-79
2022/12/11 14:37:08;;;;;;;1999.90;999.90;;;0.50;99.90;;;;;;5002744;28;20448;-79
2022/12/11 14:39:43;;;;;;;1999.90;999.90;;;0.50;99.90;;;;;;5001785;28;20042;-79
2022/12/11 14:42:38;;;;;;;1999.90;999.90;;;0.50;99.90;;;;;;4983133;28;20042;-79
2022/12/11 14:45:24;;;;;;;1999.90;999.90;;;0.40;99.90;;;;;;4981367;28;20051;-79
2022/12/11 14:47:51;;;;;;;1999.90;999.90;;;0.50;99.90;;;;;;4981168;28;20035;-79
2022/12/11 14:50:29;;;;;;;1999.90;999.90;;;0.50;99.90;;;;;;4982268;28;20114;-79
2022/12/11 14:53:01;;;;;;;1999.90;999.90;;;0.50;99.90;;;;;;4981297;28;20042;-79
2022/12/11 14:55:30;;;;;;;1999.90;999.90;;;0.50;99.90;;;;;;4983092;28;20043;-79
2022/12/11 14:58:03;;;;;;;1999.90;999.90;;;0.40;99.90;;;;;;4981663;28;20054;-79
2022/12/11 15:00:31;;;;;;;1999.90;999.90;;;0.50;99.90;;;;;;4989104;28;20122;-79
2022/12/11 15:03:02;;;;;;;1999.90;999.90;;;0.40;99.90;;;;;;5000231;28;20027;-79
2022/12/11 15:05:28;;;;;;;1999.90;999.90;;;0.40;99.90;;;;;;5001267;28;20039;-79
2022/12/11 15:07:55;;;;;;;1999.90;999.90;;;0.40;99.90;;;;;;5004793;28;20035;-79
2022/12/11 15:10:30;;;;;;;1999.90;999.90;;;0.40;99.90;;;;;;5003286;28;20050;-79
2022/12/11 15:12:56;;;;;;;1999.90;999.90;;;0.40;99.90;;;;;;5004480;28;20854;-79
2022/12/11 15:15:22;;;;;;;1999.90;999.90;;;0.40;99.90;;;;;;5005205;28;20612;-79
2022/12/11 15:17:50;;;;;;;1999.90;999.90;;;0.40;99.90;;;;;;5005057;28;20086;-79
2022/12/11 15:20:30;;;;;;;1999.90;999.90;;;0.40;99.90;;;;;;5004940;28;20035;-79
2022/12/11 15:22:59;;;;;;;1999.90;999.90;;;0.30;99.90;;;;;;5003624;28;20102;-79
2022/12/11 15:25:27;;;;;;;1999.90;999.90;;;0.30;99.90;;;;;;5004898;28;20093;-79
2022/12/11 15:27:58;;;;;;;1999.90;999.90;;;0.30;99.90;;;;;;4990567;28;20118;-79
2022/12/11 15:30:27;;;;;;;1999.90;999.90;;;0.30;99.90;;;;;;4984795;28;20082;-79
2022/12/11 15:33:10;;;;;;;1999.90;999.90;;;0.30;99.90;;;;;;4985844;28;20031;-79
2022/12/11 15:35:38;;;;;;;1999.90;999.90;;;0.40;99.90;;;;;;4985495;28;20884;-79
2022/12/11 15:38:04;;;;;;;1999.90;999.90;;;0.20;99.90;;;;;;4985133;28;20749;-78
2022/12/11 15:40:30;;;;;;;1999.90;999.90;;;0.20;99.90;;;;;;4985705;28;20039;-80
2022/12/11 15:42:56;;;;;;;1999.90;999.90;;;0.20;99.90;;;;;;4984933;28;20039;-77
2022/12/11 15:45:29;;;;;;;1999.90;999.90;;;0.20;99.90;;;;;;4993891;28;20115;-83
2022/12/11 15:47:56;;;;;;;1999.90;999.90;;;0.20;99.90;;;;;;5010634;28;20031;-83
2022/12/11 15:50:27;;;;;;;1999.90;999.90;;;0.10;99.90;;;;;;5008077;28;20852;-82
2022/12/11 15:52:54;;;;;;;1999.90;999.90;;;0.10;99.90;;;;;;5005575;28;20042;-83
2022/12/11 15:55:21;;;;;;;1999.90;999.90;;;0.10;99.90;;;;;;5002147;28;20101;-82
2022/12/11 15:57:49;;;;;;;1999.90;999.90;;;0.20;99.90;;;;;;5007703;28;21179;-82
2022/12/11 16:00:17;;;;;;;1999.90;999.90;;;0.10;99.90;;;;;;5006029;28;20058;-82
2022/12/11 16:02:43;;;;;;;1999.90;999.90;;;0.10;99.90;;;;;;5006309;28;20030;-83
2022/12/11 16:05:09;;;;;;;1999.90;999.90;;;0.10;99.90;;;;;;4986390;28;20035;-83
2022/12/11 16:07:35;;;;;;;1999.90;999.90;;;0.10;99.90;;;;;;4999096;28;20401;-82
2022/12/11 16:10:00;;;;;;;1999.90;999.90;;;0.10;99.90;;;;;;4984334;28;20036;-82
2022/12/11 16:12:26;;;;;;;1999.90;999.90;;;0.10;99.90;;;;;;4982106;28;20031;-82
2022/12/11 16:14:51;;;;;;;1999.90;999.90;;;0.20;99.90;;;;;;4981873;28;20047;-82
2022/12/11 16:17:18;;;;;;;1999.90;999.90;;;0.20;99.90;;;;;;5004125;28;20035;-83
2022/12/11 16:19:44;;;;;;;1999.90;999.90;;;0.20;99.90;;;;;;5001674;28;20069;-83
2022/12/11 16:22:11;;;;;;;1999.90;999.90;;;0.20;99.90;;;;;;5002017;28;20568;-84
2022/12/11 16:24:37;;;;;;;1999.90;999.90;;;0.30;99.90;;;;;;5000156;28;20764;-84
2022/12/11 16:27:03;;;;;;;1999.90;999.90;;;0.30;99.90;;;;;;4999928;28;20030;-84
2022/12/11 16:29:34;;;;;;;1999.90;999.90;;;0.30;99.90;;;;;;4981787;28;20117;-86
2022/12/11 16:31:59;;;;;;;1999.90;999.90;;;0.40;99.90;;;;;;4991148;28;20036;-84
2022/12/11 16:34:26;;;;;;;1999.90;999.90;;;0.30;99.90;;;;;;4988164;28;20043;-84
2022/12/11 16:36:52;;;;;;;1999.90;999.90;;;0.30;99.90;;;;;;4985273;28;20035;-86
2022/12/11 16:39:20;;;;;;;1999.90;999.90;;;0.30;99.90;;;;;;4993397;28;20043;-84
2022/12/11 16:41:45;;;;;;;1999.90;999.90;;;0.20;99.90;;;;;;4984794;28;20033;-85
2022/12/11 16:44:11;;;;;;;1999.90;999.90;;;0.20;99.90;;;;;;4991183;28;20043;-84
2022/12/11 16:46:37;;;;;;;1999.90;999.90;;;0.20;99.90;;;;;;4978303;28;20501;-84
2022/12/11 16:49:03;;;;;;;1999.90;999.90;;;0.30;99.90;;;;;;4995362;28;20400;-83
2022/12/11 16:51:29;;;;;;;1999.90;999.90;;;0.30;99.90;;;;;;4993087;28;20027;-84
2022/12/11 16:53:54;;;;;;;1999.90;999.90;;;0.30;99.90;;;;;;4993574;28;20501;-81